sensor_id;sensor_type;location;lat;lon;timestamp;pressure;altitude;pressure_sealevel;temperature;humidity
44974;BME280;60981;50.720;11.342;2023-06-10T00:00:40;102038.25;;;17.53;62.10
44974;BME280;60981;50.720;11.342;2023-06-10T00:01:43;101953.19;;;17.24;62.05
44974;BME280;60981;50.720;11.342;2023-06-10T00:02:48;101996.06;;;17.33;61.57
44974;BME280;60981;50.720;11.342;2023-06-10T00:03:51;102038.50;;;17.16;61.60
44974;BME280;60981;50.720;11.342;2023-06-10T00:04:53;102165.09;;;17.21;62.09
44974;BME280;60981;50.720;11.342;2023-06-10T00:05:56;102186.34;;;17.01;62.45
44974;BME280;60981;50.720;11.342;2023-06-10T00:06:57;103188.38;;;17.12;62.71
44974;BME280;60981;50.720;11.342;2023-06-10T00:07:59;102491.69;;;17.17;62.46
44974;BME280;60981;50.720;11.342;2023-06-10T00:09:04;102733.41;;;17.18;63.12
44974;BME280;60981;50.720;11.342;2023-06-10T00:10:07;102805.03;;;17.03;62.14
44974;BME280;60981;50.720;11.342;2023-06-10T00:11:08;102411.56;;;16.98;60.29
44974;BME280;60981;50.720;11.342;2023-06-10T00:12:11;103191.72;;;17.06;60.13
44974;BME280;60981;50.720;11.342;2023-06-10T00:13:13;102602.16;;;16.99;60.42
44974;BME280;60981;50.720;11.342;2023-06-10T00:14:15;102753.97;;;17.03;60.66
44974;BME280;60981;50.720;11.342;2023-06-10T00:15:17;102152.41;;;17.00;60.44
44974;BME280;60981;50.720;11.342;2023-06-10T00:16:19;102340.31;;;17.02;60.54
44974;BME280;60981;50.720;11.342;2023-06-10T00:17:21;102384.81;;;17.04;61.38
44974;BME280;60981;50.720;11.342;2023-06-10T00:18:25;102563.41;;;16.94;61.32
44974;BME280;60981;50.720;11.342;2023-06-10T00:19:28;102224.97;;;17.00;60.09
44974;BME280;60981;50.720;11.342;2023-06-10T00:20:33;102415.88;;;16.84;59.24
44974;BME280;60981;50.720;11.342;2023-06-10T00:21:39;102490.63;;;17.03;59.15
44974;BME280;60981;50.720;11.342;2023-06-10T00:22:42;102335.66;;;16.81;58.76
44974;BME280;60981;50.720;11.342;2023-06-10T00:23:47;102563.56;;;16.92;59.32
44974;BME280;60981;50.720;11.342;2023-06-10T00:24:50;102607.88;;;16.96;59.65
44974;BME280;60981;50.720;11.342;2023-06-10T00:25:52;102557.59;;;16.82;59.18
44974;BME280;60981;50.720;11.342;2023-06-10T00:26:54;102553.50;;;16.94;59.35
44974;BME280;60981;50.720;11.342;2023-06-10T00:27:56;102652.41;;;16.90;59.45
44974;BME280;60981;50.720;11.342;2023-06-10T00:28:58;102894.06;;;16.84;59.53
44974;BME280;60981;50.720;11.342;2023-06-10T00:30:04;102527.50;;;16.86;59.27
44974;BME280;60981;50.720;11.342;2023-06-10T00:31:09;102398.44;;;16.80;59.12
44974;BME280;60981;50.720;11.342;2023-06-10T00:32:10;102403.69;;;16.73;59.35
44974;BME280;60981;50.720;11.342;2023-06-10T00:33:13;102301.00;;;16.86;59.35
44974;BME280;60981;50.720;11.342;2023-06-10T00:34:15;102283.50;;;16.75;59.66
44974;BME280;60981;50.720;11.342;2023-06-10T00:35:17;102328.84;;;16.70;59.86
44974;BME280;60981;50.720;11.342;2023-06-10T00:36:19;102202.34;;;16.65;59.62
44974;BME280;60981;50.720;11.342;2023-06-10T00:37:21;102395.47;;;16.75;59.58
44974;BME280;60981;50.720;11.342;2023-06-10T00:38:24;102256.25;;;16.78;59.88
44974;BME280;60981;50.720;11.342;2023-06-10T00:39:26;102330.28;;;16.81;59.90
44974;BME280;60981;50.720;11.342;2023-06-10T00:40:27;102404.88;;;16.63;59.39
44974;BME280;60981;50.720;11.342;2023-06-10T00:41:30;102270.44;;;16.64;59.97
44974;BME280;60981;50.720;11.342;2023-06-10T00:42:32;102437.44;;;16.76;60.12
44974;BME280;60981;50.720;11.342;2023-06-10T00:43:34;102333.22;;;16.63;60.14
44974;BME280;60981;50.720;11.342;2023-06-10T00:44:37;102437.47;;;16.68;60.21
44974;BME280;60981;50.720;11.342;2023-06-10T00:45:39;102733.88;;;16.58;61.43
44974;BME280;60981;50.720;11.342;2023-06-10T00:46:41;102423.69;;;16.63;61.68
44974;BME280;60981;50.720;11.342;2023-06-10T00:47:43;102863.09;;;16.47;61.39
44974;BME280;60981;50.720;11.342;2023-06-10T00:48:45;102764.59;;;16.56;61.63
44974;BME280;60981;50.720;11.342;2023-06-10T00:49:48;103104.91;;;16.46;62.04
44974;BME280;60981;50.720;11.342;2023-06-10T00:50:51;105835.22;;;16.39;62.61
44974;BME280;60981;50.720;11.342;2023-06-10T00:51:53;105881.72;;;16.25;62.53
44974;BME280;60981;50.720;11.342;2023-06-10T00:52:55;107150.63;;;16.25;63.00
44974;BME280;60981;50.720;11.342;2023-06-10T00:53:57;107405.22;;;16.19;62.99
44974;BME280;60981;50.720;11.342;2023-06-10T00:54:59;109983.59;;;16.24;62.99
44974;BME280;60981;50.720;11.342;2023-06-10T00:56:02;109244.31;;;16.13;63.40
44974;BME280;60981;50.720;11.342;2023-06-10T00:57:04;110850.31;;;16.21;62.91
44974;BME280;60981;50.720;11.342;2023-06-10T00:58:07;112029.06;;;16.17;63.32
44974;BME280;60981;50.720;11.342;2023-06-10T00:59:09;111075.03;;;16.10;64.11
44974;BME280;60981;50.720;11.342;2023-06-10T01:00:12;112480.34;;;16.23;64.59
44974;BME280;60981;50.720;11.342;2023-06-10T01:01:15;112812.41;;;16.28;64.15
44974;BME280;60981;50.720;11.342;2023-06-10T01:02:17;111712.97;;;16.28;63.94
44974;BME280;60981;50.720;11.342;2023-06-10T01:03:19;112880.44;;;16.25;63.43
44974;BME280;60981;50.720;11.342;2023-06-10T01:04:21;111974.75;;;16.27;61.75
44974;BME280;60981;50.720;11.342;2023-06-10T01:05:24;109911.00;;;16.21;61.61
44974;BME280;60981;50.720;11.342;2023-06-10T01:06:33;110551.84;;;16.23;61.62
44974;BME280;60981;50.720;11.342;2023-06-10T01:09:08;110915.34;;;16.04;61.43
44974;BME280;60981;50.720;11.342;2023-06-10T01:10:24;111322.88;;;16.27;61.58
44974;BME280;60981;50.720;11.342;2023-06-10T01:11:58;111633.16;;;16.29;61.18
44974;BME280;60981;50.720;11.342;2023-06-10T01:13:10;111500.91;;;16.14;61.31
44974;BME280;60981;50.720;11.342;2023-06-10T01:14:13;111639.06;;;16.17;61.25
44974;BME280;60981;50.720;11.342;2023-06-10T01:15:16;111452.72;;;16.21;61.20
44974;BME280;60981;50.720;11.342;2023-06-10T01:16:19;112154.81;;;16.23;61.54
44974;BME280;60981;50.720;11.342;2023-06-10T01:17:24;112324.88;;;16.16;61.67
44974;BME280;60981;50.720;11.342;2023-06-10T01:18:30;111561.31;;;16.25;61.54
44974;BME280;60981;50.720;11.342;2023-06-10T01:19:32;110552.56;;;16.11;61.70
44974;BME280;60981;50.720;11.342;2023-06-10T01:20:37;110281.97;;;16.16;62.13
44974;BME280;60981;50.720;11.342;2023-06-10T01:21:42;110196.59;;;15.94;62.23
44974;BME280;60981;50.720;11.342;2023-06-10T01:22:50;110149.31;;;16.14;61.94
44974;BME280;60981;50.720;11.342;2023-06-10T01:23:54;110015.81;;;16.16;62.19
44974;BME280;60981;50.720;11.342;2023-06-10T01:24:58;110332.97;;;16.09;62.17
44974;BME280;60981;50.720;11.342;2023-06-10T01:26:03;109636.75;;;16.18;62.64
44974;BME280;60981;50.720;11.342;2023-06-10T01:27:11;109457.59;;;16.02;62.56
44974;BME280;60981;50.720;11.342;2023-06-10T01:28:23;108727.56;;;16.02;62.31
44974;BME280;60981;50.720;11.342;2023-06-10T01:29:35;110376.69;;;15.94;61.73
44974;BME280;60981;50.720;11.342;2023-06-10T01:30:48;109527.47;;;16.00;61.38
44974;BME280;60981;50.720;11.342;2023-06-10T01:32:08;112071.31;;;15.98;61.20
44974;BME280;60981;50.720;11.342;2023-06-10T01:33:12;112326.84;;;15.99;61.28
44974;BME280;60981;50.720;11.342;2023-06-10T01:34:18;112099.41;;;15.83;61.39
44974;BME280;60981;50.720;11.342;2023-06-10T01:35:24;112642.94;;;15.92;61.44
44974;BME280;60981;50.720;11.342;2023-06-10T01:36:27;111744.66;;;15.86;61.30
44974;BME280;60981;50.720;11.342;2023-06-10T01:37:30;112522.88;;;15.75;61.58
44974;BME280;60981;50.720;11.342;2023-06-10T01:38:37;111721.09;;;15.79;62.04
44974;BME280;60981;50.720;11.342;2023-06-10T01:39:42;110930.75;;;15.72;62.17
44974;BME280;60981;50.720;11.342;2023-06-10T01:40:44;110209.00;;;15.81;62.10
44974;BME280;60981;50.720;11.342;2023-06-10T01:41:48;111640.38;;;15.76;62.50
44974;BME280;60981;50.720;11.342;2023-06-10T01:42:51;112541.88;;;15.60;62.75
44974;BME280;60981;50.720;11.342;2023-06-10T01:43:54;112023.03;;;15.57;62.52
44974;BME280;60981;50.720;11.342;2023-06-10T01:44:56;111093.19;;;15.53;62.40
44974;BME280;60981;50.720;11.342;2023-06-10T01:45:59;109932.16;;;15.71;62.25
44974;BME280;60981;50.720;11.342;2023-06-10T01:47:01;110056.66;;;15.71;62.39
44974;BME280;60981;50.720;11.342;2023-06-10T01:48:03;109125.44;;;15.56;62.58
44974;BME280;60981;50.720;11.342;2023-06-10T01:49:05;109787.84;;;15.53;62.49
44974;BME280;60981;50.720;11.342;2023-06-10T01:50:08;108802.34;;;15.62;62.23
44974;BME280;60981;50.720;11.342;2023-06-10T01:51:10;109067.28;;;15.60;62.20
44974;BME280;60981;50.720;11.342;2023-06-10T01:52:12;108078.44;;;15.52;62.41
44974;BME280;60981;50.720;11.342;2023-06-10T01:53:14;107667.53;;;15.62;62.58
44974;BME280;60981;50.720;11.342;2023-06-10T01:54:16;107803.88;;;15.47;62.47
44974;BME280;60981;50.720;11.342;2023-06-10T01:55:18;107421.16;;;15.41;62.56
44974;BME280;60981;50.720;11.342;2023-06-10T01:56:21;106962.97;;;15.48;62.57
44974;BME280;60981;50.720;11.342;2023-06-10T01:57:23;107615.78;;;15.23;62.61
44974;BME280;60981;50.720;11.342;2023-06-10T01:58:25;105902.59;;;15.25;62.69
44974;BME280;60981;50.720;11.342;2023-06-10T01:59:27;104902.31;;;15.27;62.67
44974;BME280;60981;50.720;11.342;2023-06-10T02:00:29;104952.06;;;15.18;62.92
44974;BME280;60981;50.720;11.342;2023-06-10T02:01:31;103249.56;;;15.15;63.17
44974;BME280;60981;50.720;11.342;2023-06-10T02:02:32;103671.16;;;15.34;62.97
44974;BME280;60981;50.720;11.342;2023-06-10T02:03:35;102838.19;;;15.28;63.30
44974;BME280;60981;50.720;11.342;2023-06-10T02:04:37;102711.38;;;15.28;63.44
44974;BME280;60981;50.720;11.342;2023-06-10T02:05:39;102158.16;;;15.08;63.66
44974;BME280;60981;50.720;11.342;2023-06-10T02:06:41;101628.00;;;15.21;63.77
44974;BME280;60981;50.720;11.342;2023-06-10T02:07:43;101060.50;;;15.05;63.67
44974;BME280;60981;50.720;11.342;2023-06-10T02:08:45;101096.81;;;15.20;64.18
44974;BME280;60981;50.720;11.342;2023-06-10T02:09:47;100610.88;;;15.03;64.09
44974;BME280;60981;50.720;11.342;2023-06-10T02:10:49;100580.13;;;15.19;64.27
44974;BME280;60981;50.720;11.342;2023-06-10T02:11:51;100664.63;;;15.08;63.73
44974;BME280;60981;50.720;11.342;2023-06-10T02:12:53;100589.63;;;15.15;63.70
44974;BME280;60981;50.720;11.342;2023-06-10T02:13:55;100733.84;;;15.05;63.96
44974;BME280;60981;50.720;11.342;2023-06-10T02:14:57;100364.91;;;15.13;63.85
44974;BME280;60981;50.720;11.342;2023-06-10T02:15:59;100598.69;;;15.14;63.79
44974;BME280;60981;50.720;11.342;2023-06-10T02:17:01;100735.72;;;14.97;63.89
44974;BME280;60981;50.720;11.342;2023-06-10T02:18:03;100266.19;;;14.98;63.81
44974;BME280;60981;50.720;11.342;2023-06-10T02:19:06;100392.72;;;15.12;63.71
44974;BME280;60981;50.720;11.342;2023-06-10T02:20:08;100366.22;;;15.04;63.75
44974;BME280;60981;50.720;11.342;2023-06-10T02:21:12;100239.97;;;15.07;63.77
44974;BME280;60981;50.720;11.342;2023-06-10T02:22:14;100163.00;;;15.02;63.79
44974;BME280;60981;50.720;11.342;2023-06-10T02:23:16;100243.06;;;15.04;63.66
44974;BME280;60981;50.720;11.342;2023-06-10T02:24:19;100128.41;;;15.01;63.94
44974;BME280;60981;50.720;11.342;2023-06-10T02:25:21;100077.63;;;14.94;63.81
44974;BME280;60981;50.720;11.342;2023-06-10T02:26:23;100111.16;;;14.97;63.77
44974;BME280;60981;50.720;11.342;2023-06-10T02:27:27;100081.78;;;15.09;63.76
44974;BME280;60981;50.720;11.342;2023-06-10T02:28:29;100065.44;;;14.98;64.02
44974;BME280;60981;50.720;11.342;2023-06-10T02:29:33;100147.97;;;15.01;64.13
44974;BME280;60981;50.720;11.342;2023-06-10T02:30:36;100023.41;;;14.99;64.28
44974;BME280;60981;50.720;11.342;2023-06-10T02:31:39;100276.25;;;15.03;64.21
44974;BME280;60981;50.720;11.342;2023-06-10T02:32:42;99970.53;;;14.83;63.97
44974;BME280;60981;50.720;11.342;2023-06-10T02:33:49;100010.53;;;15.08;64.00
44974;BME280;60981;50.720;11.342;2023-06-10T02:34:51;99882.13;;;14.89;64.04
44974;BME280;60981;50.720;11.342;2023-06-10T02:35:54;99967.16;;;14.87;63.90
44974;BME280;60981;50.720;11.342;2023-06-10T02:36:56;99868.63;;;14.96;64.07
44974;BME280;60981;50.720;11.342;2023-06-10T02:37:59;99852.31;;;14.86;64.02
44974;BME280;60981;50.720;11.342;2023-06-10T02:39:01;99875.50;;;14.92;64.06
44974;BME280;60981;50.720;11.342;2023-06-10T02:40:03;99857.47;;;14.99;64.16
44974;BME280;60981;50.720;11.342;2023-06-10T02:41:06;99912.63;;;15.00;64.06
44974;BME280;60981;50.720;11.342;2023-06-10T02:42:08;99939.94;;;14.90;64.02
44974;BME280;60981;50.720;11.342;2023-06-10T02:43:10;99901.56;;;14.96;64.40
44974;BME280;60981;50.720;11.342;2023-06-10T02:44:12;100121.34;;;14.88;64.69
44974;BME280;60981;50.720;11.342;2023-06-10T02:45:14;100090.78;;;14.96;64.75
44974;BME280;60981;50.720;11.342;2023-06-10T02:46:16;99834.06;;;14.94;64.79
44974;BME280;60981;50.720;11.342;2023-06-10T02:47:18;99852.56;;;14.96;65.33
44974;BME280;60981;50.720;11.342;2023-06-10T02:48:19;99933.16;;;14.76;65.14
44974;BME280;60981;50.720;11.342;2023-06-10T02:49:21;99969.78;;;14.76;65.37
44974;BME280;60981;50.720;11.342;2023-06-10T02:50:23;99952.88;;;14.45;65.64
44974;BME280;60981;50.720;11.342;2023-06-10T02:51:25;100234.84;;;14.56;65.94
44974;BME280;60981;50.720;11.342;2023-06-10T02:52:27;100959.28;;;14.32;66.16
44974;BME280;60981;50.720;11.342;2023-06-10T02:53:29;101255.72;;;14.29;66.24
44974;BME280;60981;50.720;11.342;2023-06-10T02:54:31;101608.69;;;14.37;66.59
44974;BME280;60981;50.720;11.342;2023-06-10T02:55:32;101647.28;;;14.43;66.26
44974;BME280;60981;50.720;11.342;2023-06-10T02:56:34;101822.13;;;14.27;66.69
44974;BME280;60981;50.720;11.342;2023-06-10T02:57:38;101233.31;;;14.30;66.93
44974;BME280;60981;50.720;11.342;2023-06-10T02:58:39;101246.50;;;14.31;66.63
44974;BME280;60981;50.720;11.342;2023-06-10T02:59:41;101289.78;;;14.20;66.63
44974;BME280;60981;50.720;11.342;2023-06-10T03:00:44;101096.13;;;14.08;67.13
44974;BME280;60981;50.720;11.342;2023-06-10T03:01:46;100697.19;;;14.13;67.12
44974;BME280;60981;50.720;11.342;2023-06-10T03:02:48;100695.09;;;13.95;67.44
44974;BME280;60981;50.720;11.342;2023-06-10T03:03:50;101098.25;;;13.91;67.53
44974;BME280;60981;50.720;11.342;2023-06-10T03:04:52;101023.75;;;14.10;67.64
44974;BME280;60981;50.720;11.342;2023-06-10T03:05:55;101029.16;;;13.88;67.80
44974;BME280;60981;50.720;11.342;2023-06-10T03:06:58;100877.91;;;14.00;67.57
44974;BME280;60981;50.720;11.342;2023-06-10T03:08:02;100933.41;;;13.98;67.62
44974;BME280;60981;50.720;11.342;2023-06-10T03:09:04;101057.78;;;13.94;67.41
44974;BME280;60981;50.720;11.342;2023-06-10T03:10:06;100899.91;;;14.02;67.29
44974;BME280;60981;50.720;11.342;2023-06-10T03:11:08;100695.09;;;13.88;67.39
44974;BME280;60981;50.720;11.342;2023-06-10T03:12:10;100702.72;;;13.98;67.67
44974;BME280;60981;50.720;11.342;2023-06-10T03:13:12;100759.44;;;13.93;67.58
44974;BME280;60981;50.720;11.342;2023-06-10T03:14:16;100949.59;;;13.90;67.97
44974;BME280;60981;50.720;11.342;2023-06-10T03:15:18;101205.56;;;13.88;68.18
44974;BME280;60981;50.720;11.342;2023-06-10T03:16:22;100618.19;;;13.77;68.41
44974;BME280;60981;50.720;11.342;2023-06-10T03:17:24;101205.81;;;13.93;68.26
44974;BME280;60981;50.720;11.342;2023-06-10T03:18:27;100616.97;;;13.80;67.74
44974;BME280;60981;50.720;11.342;2023-06-10T03:19:29;100868.31;;;13.71;67.97
44974;BME280;60981;50.720;11.342;2023-06-10T03:20:32;100389.59;;;13.94;68.12
44974;BME280;60981;50.720;11.342;2023-06-10T03:21:39;100415.09;;;13.90;68.31
44974;BME280;60981;50.720;11.342;2023-06-10T03:22:43;100403.75;;;14.01;68.06
44974;BME280;60981;50.720;11.342;2023-06-10T03:23:45;100413.03;;;13.92;67.93
44974;BME280;60981;50.720;11.342;2023-06-10T03:24:47;100608.75;;;13.94;68.29
44974;BME280;60981;50.720;11.342;2023-06-10T03:25:51;100403.19;;;13.86;68.47
44974;BME280;60981;50.720;11.342;2023-06-10T03:26:54;100615.13;;;13.93;68.21
44974;BME280;60981;50.720;11.342;2023-06-10T03:27:55;100703.75;;;13.97;68.06
44974;BME280;60981;50.720;11.342;2023-06-10T03:28:57;100656.84;;;13.94;67.83
44974;BME280;60981;50.720;11.342;2023-06-10T03:29:59;100785.16;;;14.01;67.99
44974;BME280;60981;50.720;11.342;2023-06-10T03:31:02;100913.88;;;13.98;69.06
44974;BME280;60981;50.720;11.342;2023-06-10T03:32:04;100872.09;;;13.90;69.18
44974;BME280;60981;50.720;11.342;2023-06-10T03:33:06;100837.00;;;14.06;69.43
44974;BME280;60981;50.720;11.342;2023-06-10T03:34:08;100754.75;;;14.09;69.21
44974;BME280;60981;50.720;11.342;2023-06-10T03:35:10;100746.94;;;14.14;69.38
44974;BME280;60981;50.720;11.342;2023-06-10T03:36:13;100754.97;;;14.14;69.35
44974;BME280;60981;50.720;11.342;2023-06-10T03:37:15;100722.03;;;14.00;69.44
44974;BME280;60981;50.720;11.342;2023-06-10T03:38:18;100652.94;;;13.90;69.74
44974;BME280;60981;50.720;11.342;2023-06-10T03:39:20;100549.53;;;13.91;69.95
44974;BME280;60981;50.720;11.342;2023-06-10T03:40:22;100623.34;;;13.98;70.08
44974;BME280;60981;50.720;11.342;2023-06-10T03:41:24;100682.38;;;14.03;70.10
44974;BME280;60981;50.720;11.342;2023-06-10T03:42:27;100611.22;;;13.83;69.41
44974;BME280;60981;50.720;11.342;2023-06-10T03:43:29;100709.50;;;13.94;68.83
44974;BME280;60981;50.720;11.342;2023-06-10T03:44:32;100750.41;;;14.01;68.77
44974;BME280;60981;50.720;11.342;2023-06-10T03:45:35;100701.66;;;13.86;68.70
44974;BME280;60981;50.720;11.342;2023-06-10T03:46:38;100737.38;;;13.71;68.91
44974;BME280;60981;50.720;11.342;2023-06-10T03:47:40;100593.31;;;13.83;69.16
44974;BME280;60981;50.720;11.342;2023-06-10T03:48:42;100551.19;;;13.65;69.15
44974;BME280;60981;50.720;11.342;2023-06-10T03:49:44;100848.16;;;13.69;69.06
44974;BME280;60981;50.720;11.342;2023-06-10T03:50:46;100655.41;;;13.92;68.81
44974;BME280;60981;50.720;11.342;2023-06-10T03:51:49;100589.84;;;13.96;68.95
44974;BME280;60981;50.720;11.342;2023-06-10T03:52:51;100381.22;;;13.78;68.63
44974;BME280;60981;50.720;11.342;2023-06-10T03:53:53;100470.19;;;13.91;68.59
44974;BME280;60981;50.720;11.342;2023-06-10T03:54:55;100722.47;;;14.03;68.80
44974;BME280;60981;50.720;11.342;2023-06-10T03:55:57;100705.81;;;14.08;68.59
44974;BME280;60981;50.720;11.342;2023-06-10T03:56:59;100652.34;;;14.01;68.48
44974;BME280;60981;50.720;11.342;2023-06-10T03:58:02;100632.41;;;13.97;68.68
44974;BME280;60981;50.720;11.342;2023-06-10T03:59:03;100630.75;;;14.10;68.52
44974;BME280;60981;50.720;11.342;2023-06-10T04:00:07;100499.38;;;14.06;68.43
44974;BME280;60981;50.720;11.342;2023-06-10T04:01:13;100538.22;;;13.95;68.41
44974;BME280;60981;50.720;11.342;2023-06-10T04:02:15;100664.03;;;13.87;68.54
44974;BME280;60981;50.720;11.342;2023-06-10T04:03:17;100667.34;;;13.96;68.38
44974;BME280;60981;50.720;11.342;2023-06-10T04:04:23;100652.72;;;13.85;68.31
44974;BME280;60981;50.720;11.342;2023-06-10T04:05:25;100685.22;;;13.89;68.44
44974;BME280;60981;50.720;11.342;2023-06-10T04:06:26;100691.56;;;13.81;68.76
44974;BME280;60981;50.720;11.342;2023-06-10T04:07:30;100593.53;;;13.95;68.42
44974;BME280;60981;50.720;11.342;2023-06-10T04:08:33;100679.25;;;13.93;68.81
44974;BME280;60981;50.720;11.342;2023-06-10T04:09:35;100656.03;;;13.94;68.61
44974;BME280;60981;50.720;11.342;2023-06-10T04:10:40;100714.22;;;13.98;68.29
44974;BME280;60981;50.720;11.342;2023-06-10T04:11:42;100557.16;;;14.07;68.26
44974;BME280;60981;50.720;11.342;2023-06-10T04:12:44;100398.25;;;13.90;68.67
44974;BME280;60981;50.720;11.342;2023-06-10T04:13:46;100552.00;;;14.05;68.28
44974;BME280;60981;50.720;11.342;2023-06-10T04:14:48;100503.88;;;14.12;68.09
44974;BME280;60981;50.720;11.342;2023-06-10T04:15:50;100578.94;;;14.04;68.09
44974;BME280;60981;50.720;11.342;2023-06-10T04:16:52;100428.38;;;14.23;67.79
44974;BME280;60981;50.720;11.342;2023-06-10T04:17:54;100760.41;;;14.53;67.08
44974;BME280;60981;50.720;11.342;2023-06-10T04:18:59;101013.28;;;14.84;65.82
44974;BME280;60981;50.720;11.342;2023-06-10T04:20:02;101155.94;;;15.19;65.04
44974;BME280;60981;50.720;11.342;2023-06-10T04:21:05;100982.47;;;15.27;63.72
44974;BME280;60981;50.720;11.342;2023-06-10T04:22:07;101308.50;;;15.61;63.05
44974;BME280;60981;50.720;11.342;2023-06-10T04:23:10;100807.94;;;15.63;62.74
44974;BME280;60981;50.720;11.342;2023-06-10T04:24:11;101220.94;;;15.82;62.65
44974;BME280;60981;50.720;11.342;2023-06-10T04:25:14;101991.78;;;16.01;62.38
44974;BME280;60981;50.720;11.342;2023-06-10T04:26:16;102713.75;;;16.30;61.75
44974;BME280;60981;50.720;11.342;2023-06-10T04:27:18;103427.75;;;16.57;61.01
44974;BME280;60981;50.720;11.342;2023-06-10T04:28:20;103299.75;;;16.84;59.52
44974;BME280;60981;50.720;11.342;2023-06-10T04:29:22;104040.28;;;16.96;59.34
44974;BME280;60981;50.720;11.342;2023-06-10T04:30:24;103391.59;;;16.79;59.79
44974;BME280;60981;50.720;11.342;2023-06-10T04:31:25;102685.16;;;16.94;59.80
44974;BME280;60981;50.720;11.342;2023-06-10T04:32:28;102737.41;;;16.83;59.72
44974;BME280;60981;50.720;11.342;2023-06-10T04:33:30;102808.75;;;16.94;59.82
44974;BME280;60981;50.720;11.342;2023-06-10T04:34:36;102533.97;;;17.00;59.51
44974;BME280;60981;50.720;11.342;2023-06-10T04:35:40;102474.59;;;17.10;58.51
44974;BME280;60981;50.720;11.342;2023-06-10T04:36:42;102508.66;;;17.17;58.44
44974;BME280;60981;50.720;11.342;2023-06-10T04:37:44;102513.25;;;17.09;58.74
44974;BME280;60981;50.720;11.342;2023-06-10T04:38:46;102524.66;;;17.11;57.96
44974;BME280;60981;50.720;11.342;2023-06-10T04:39:48;102536.72;;;17.15;57.31
44974;BME280;60981;50.720;11.342;2023-06-10T04:40:50;102771.56;;;17.14;57.71
44974;BME280;60981;50.720;11.342;2023-06-10T04:41:52;103004.22;;;16.84;58.56
44974;BME280;60981;50.720;11.342;2023-06-10T04:42:54;102722.13;;;16.84;58.23
44974;BME280;60981;50.720;11.342;2023-06-10T04:43:56;102802.38;;;16.95;58.18
44974;BME280;60981;50.720;11.342;2023-06-10T04:44:58;102716.69;;;17.00;57.85
44974;BME280;60981;50.720;11.342;2023-06-10T04:45:59;102930.66;;;16.93;57.75
44974;BME280;60981;50.720;11.342;2023-06-10T04:47:02;102706.50;;;16.87;58.07
44974;BME280;60981;50.720;11.342;2023-06-10T04:48:04;102760.25;;;16.79;58.31
44974;BME280;60981;50.720;11.342;2023-06-10T04:49:06;102693.25;;;16.78;58.37
44974;BME280;60981;50.720;11.342;2023-06-10T04:50:08;102615.38;;;16.78;58.44
44974;BME280;60981;50.720;11.342;2023-06-10T04:51:10;102581.16;;;16.72;58.45
44974;BME280;60981;50.720;11.342;2023-06-10T04:52:12;102660.03;;;16.71;58.58
44974;BME280;60981;50.720;11.342;2023-06-10T04:53:19;102630.66;;;16.69;58.70
44974;BME280;60981;50.720;11.342;2023-06-10T04:54:22;102581.81;;;16.57;58.79
44974;BME280;60981;50.720;11.342;2023-06-10T04:55:24;102608.50;;;16.59;59.21
44974;BME280;60981;50.720;11.342;2023-06-10T04:56:26;102503.28;;;16.55;59.28
44974;BME280;60981;50.720;11.342;2023-06-10T04:57:28;102532.00;;;16.47;59.75
44974;BME280;60981;50.720;11.342;2023-06-10T04:58:30;102537.09;;;16.34;59.74
44974;BME280;60981;50.720;11.342;2023-06-10T04:59:32;102466.78;;;16.38;60.19
44974;BME280;60981;50.720;11.342;2023-06-10T05:00:34;102506.81;;;16.17;60.50
44974;BME280;60981;50.720;11.342;2023-06-10T05:01:36;102365.25;;;16.19;60.55
44974;BME280;60981;50.720;11.342;2023-06-10T05:02:38;102407.66;;;16.23;60.54
44974;BME280;60981;50.720;11.342;2023-06-10T05:03:39;102313.41;;;16.18;60.80
44974;BME280;60981;50.720;11.342;2023-06-10T05:04:42;102380.34;;;16.20;60.94
44974;BME280;60981;50.720;11.342;2023-06-10T05:05:43;102285.75;;;16.18;60.72
44974;BME280;60981;50.720;11.342;2023-06-10T05:06:46;102340.13;;;16.12;60.65
44974;BME280;60981;50.720;11.342;2023-06-10T05:07:48;102231.59;;;16.14;60.90
44974;BME280;60981;50.720;11.342;2023-06-10T05:08:50;102202.63;;;16.10;60.61
44974;BME280;60981;50.720;11.342;2023-06-10T05:09:52;102247.75;;;16.29;60.80
44974;BME280;60981;50.720;11.342;2023-06-10T05:10:53;102261.66;;;16.10;60.83
44974;BME280;60981;50.720;11.342;2023-06-10T05:11:56;102272.75;;;16.29;60.55
44974;BME280;60981;50.720;11.342;2023-06-10T05:12:58;102250.56;;;16.36;60.50
44974;BME280;60981;50.720;11.342;2023-06-10T05:14:00;102246.75;;;16.30;60.85
44974;BME280;60981;50.720;11.342;2023-06-10T05:15:02;102243.53;;;16.12;60.95
44974;BME280;60981;50.720;11.342;2023-06-10T05:16:03;102253.50;;;16.26;61.05
44974;BME280;60981;50.720;11.342;2023-06-10T05:17:05;102251.69;;;16.18;61.02
44974;BME280;60981;50.720;11.342;2023-06-10T05:18:07;102285.44;;;16.13;61.96
44974;BME280;60981;50.720;11.342;2023-06-10T05:19:09;102287.72;;;16.01;61.69
44974;BME280;60981;50.720;11.342;2023-06-10T05:20:12;102344.56;;;15.96;61.42
44974;BME280;60981;50.720;11.342;2023-06-10T05:21:15;102337.97;;;16.07;61.73
44974;BME280;60981;50.720;11.342;2023-06-10T05:22:17;102396.88;;;16.01;61.67
44974;BME280;60981;50.720;11.342;2023-06-10T05:23:20;102483.34;;;16.11;62.01
44974;BME280;60981;50.720;11.342;2023-06-10T05:24:21;102330.94;;;16.06;61.96
44974;BME280;60981;50.720;11.342;2023-06-10T05:25:26;102361.91;;;16.17;61.91
44974;BME280;60981;50.720;11.342;2023-06-10T05:26:28;102361.09;;;16.08;61.92